sensor_id;sensor_type;location;lat;lon;timestamp;P1;durP1;ratioP1;P2;durP2;ratioP2
65206;SDS011;58477;48.072;11.970;2023-05-29T00:02:24;6.82;;;3.47;;
65206;SDS011;58477;48.072;11.970;2023-05-29T00:04:50;7.53;;;3.90;;
65206;SDS011;58477;48.072;11.970;2023-05-29T00:07:16;6.72;;;3.30;;
65206;SDS011;58477;48.072;11.970;2023-05-29T00:09:41;5.38;;;3.30;;
65206;SDS011;58477;48.072;11.970;2023-05-29T00:12:07;5.80;;;3.72;;
65206;SDS011;58477;48.072;11.970;2023-05-29T00:14:32;4.75;;;3.22;;
65206;SDS011;58477;48.072;11.970;2023-05-29T00:16:58;10.90;;;3.80;;
65206;SDS011;58477;48.072;11.970;2023-05-29T00:19:27;6.68;;;3.75;;
65206;SDS011;58477;48.072;11.970;2023-05-29T00:21:52;5.68;;;3.70;;
65206;SDS011;58477;48.072;11.970;2023-05-29T00:24:18;7.63;;;3.97;;
65206;SDS011;58477;48.072;11.970;2023-05-29T00:26:45;10.15;;;3.88;;
65206;SDS011;58477;48.072;11.970;2023-05-29T00:29:11;5.18;;;3.50;;
65206;SDS011;58477;48.072;11.970;2023-05-29T00:31:36;7.10;;;3.85;;
65206;SDS011;58477;48.072;11.970;2023-05-29T00:34:02;7.90;;;4.20;;
65206;SDS011;58477;48.072;11.970;2023-05-29T00:36:27;11.20;;;4.65;;
65206;SDS011;58477;48.072;11.970;2023-05-29T00:38:54;6.32;;;4.15;;
65206;SDS011;58477;48.072;11.970;2023-05-29T00:41:20;7.85;;;4.13;;
65206;SDS011;58477;48.072;11.970;2023-05-29T00:43:45;9.43;;;4.10;;
65206;SDS011;58477;48.072;11.970;2023-05-29T00:46:12;9.82;;;3.92;;
65206;SDS011;58477;48.072;11.970;2023-05-29T00:48:39;9.20;;;3.90;;
65206;SDS011;58477;48.072;11.970;2023-05-29T00:51:07;10.65;;;4.25;;
65206;SDS011;58477;48.072;11.970;2023-05-29T00:53:34;8.15;;;4.20;;
65206;SDS011;58477;48.072;11.970;2023-05-29T00:56:00;11.35;;;4.38;;
65206;SDS011;58477;48.072;11.970;2023-05-29T00:58:27;10.57;;;4.15;;
65206;SDS011;58477;48.072;11.970;2023-05-29T01:00:53;10.32;;;3.97;;
65206;SDS011;58477;48.072;11.970;2023-05-29T01:03:19;6.20;;;3.83;;
65206;SDS011;58477;48.072;11.970;2023-05-29T01:05:45;8.75;;;4.03;;
65206;SDS011;58477;48.072;11.970;2023-05-29T01:08:11;5.65;;;3.55;;
65206;SDS011;58477;48.072;11.970;2023-05-29T01:10:37;6.95;;;4.30;;
65206;SDS011;58477;48.072;11.970;2023-05-29T01:13:08;7.13;;;4.10;;
65206;SDS011;58477;48.072;11.970;2023-05-29T01:21:01;5.80;;;3.90;;
65206;SDS011;58477;48.072;11.970;2023-05-29T01:29:14;8.18;;;4.50;;
65206;SDS011;58477;48.072;11.970;2023-05-29T01:31:41;7.70;;;3.92;;
65206;SDS011;58477;48.072;11.970;2023-05-29T01:34:08;7.75;;;4.35;;
65206;SDS011;58477;48.072;11.970;2023-05-29T01:36:34;12.02;;;4.22;;
65206;SDS011;58477;48.072;11.970;2023-05-29T01:39:01;8.80;;;4.15;;
65206;SDS011;58477;48.072;11.970;2023-05-29T01:41:27;5.88;;;4.40;;
65206;SDS011;58477;48.072;11.970;2023-05-29T01:43:54;7.38;;;4.18;;
65206;SDS011;58477;48.072;11.970;2023-05-29T01:46:21;9.30;;;5.25;;
65206;SDS011;58477;48.072;11.970;2023-05-29T01:48:47;8.48;;;4.57;;
65206;SDS011;58477;48.072;11.970;2023-05-29T01:51:12;10.18;;;4.28;;
65206;SDS011;58477;48.072;11.970;2023-05-29T01:53:38;8.77;;;4.63;;
65206;SDS011;58477;48.072;11.970;2023-05-29T01:56:05;7.20;;;4.53;;
65206;SDS011;58477;48.072;11.970;2023-05-29T01:58:32;8.98;;;4.50;;
65206;SDS011;58477;48.072;11.970;2023-05-29T02:00:59;8.23;;;4.75;;
65206;SDS011;58477;48.072;11.970;2023-05-29T02:03:25;10.02;;;4.88;;
65206;SDS011;58477;48.072;11.970;2023-05-29T02:05:54;7.13;;;4.57;;
65206;SDS011;58477;48.072;11.970;2023-05-29T02:08:20;16.63;;;4.63;;
65206;SDS011;58477;48.072;11.970;2023-05-29T02:10:46;6.22;;;4.47;;
65206;SDS011;58477;48.072;11.970;2023-05-29T02:13:11;10.60;;;4.45;;
65206;SDS011;58477;48.072;11.970;2023-05-29T02:15:36;9.50;;;4.65;;
65206;SDS011;58477;48.072;11.970;2023-05-29T02:18:02;7.15;;;4.43;;
65206;SDS011;58477;48.072;11.970;2023-05-29T02:20:28;6.80;;;3.92;;
65206;SDS011;58477;48.072;11.970;2023-05-29T02:22:53;8.15;;;4.75;;
65206;SDS011;58477;48.072;11.970;2023-05-29T02:25:18;7.63;;;4.93;;
65206;SDS011;58477;48.072;11.970;2023-05-29T02:27:44;8.60;;;4.43;;
65206;SDS011;58477;48.072;11.970;2023-05-29T02:30:09;8.55;;;4.50;;
65206;SDS011;58477;48.072;11.970;2023-05-29T02:32:36;8.85;;;4.90;;
65206;SDS011;58477;48.072;11.970;2023-05-29T02:35:04;7.40;;;5.25;;
65206;SDS011;58477;48.072;11.970;2023-05-29T02:37:29;7.70;;;4.72;;
65206;SDS011;58477;48.072;11.970;2023-05-29T02:39:55;8.10;;;4.80;;
65206;SDS011;58477;48.072;11.970;2023-05-29T02:42:20;9.82;;;5.35;;
65206;SDS011;58477;48.072;11.970;2023-05-29T02:44:46;7.93;;;4.78;;
65206;SDS011;58477;48.072;11.970;2023-05-29T02:47:12;10.48;;;4.90;;
65206;SDS011;58477;48.072;11.970;2023-05-29T02:49:37;8.75;;;5.03;;
65206;SDS011;58477;48.072;11.970;2023-05-29T02:52:02;8.60;;;4.75;;
65206;SDS011;58477;48.072;11.970;2023-05-29T02:54:28;9.18;;;5.20;;
65206;SDS011;58477;48.072;11.970;2023-05-29T02:56:54;12.55;;;5.40;;
65206;SDS011;58477;48.072;11.970;2023-05-29T02:59:19;6.75;;;4.72;;
65206;SDS011;58477;48.072;11.970;2023-05-29T03:01:45;8.15;;;4.80;;
65206;SDS011;58477;48.072;11.970;2023-05-29T03:04:12;9.63;;;5.10;;
65206;SDS011;58477;48.072;11.970;2023-05-29T03:06:37;10.18;;;4.28;;
65206;SDS011;58477;48.072;11.970;2023-05-29T03:09:05;16.58;;;5.93;;
65206;SDS011;58477;48.072;11.970;2023-05-29T03:11:31;11.13;;;5.43;;
65206;SDS011;58477;48.072;11.970;2023-05-29T03:13:58;14.18;;;6.45;;
65206;SDS011;58477;48.072;11.970;2023-05-29T03:16:23;9.45;;;5.18;;
65206;SDS011;58477;48.072;11.970;2023-05-29T03:18:51;9.52;;;5.57;;
65206;SDS011;58477;48.072;11.970;2023-05-29T03:21:18;8.52;;;5.55;;
65206;SDS011;58477;48.072;11.970;2023-05-29T03:23:44;15.82;;;6.18;;
65206;SDS011;58477;48.072;11.970;2023-05-29T03:26:09;16.33;;;5.95;;
65206;SDS011;58477;48.072;11.970;2023-05-29T03:28:37;11.00;;;6.32;;
65206;SDS011;58477;48.072;11.970;2023-05-29T03:31:06;10.40;;;6.22;;
65206;SDS011;58477;48.072;11.970;2023-05-29T03:33:33;9.27;;;5.90;;
65206;SDS011;58477;48.072;11.970;2023-05-29T03:36:08;10.00;;;5.55;;
65206;SDS011;58477;48.072;11.970;2023-05-29T03:38:34;9.40;;;6.00;;
65206;SDS011;58477;48.072;11.970;2023-05-29T03:40:59;10.98;;;5.50;;
65206;SDS011;58477;48.072;11.970;2023-05-29T03:43:26;10.60;;;6.00;;
65206;SDS011;58477;48.072;11.970;2023-05-29T03:45:52;10.77;;;5.43;;
65206;SDS011;58477;48.072;11.970;2023-05-29T03:48:17;10.68;;;5.85;;
65206;SDS011;58477;48.072;11.970;2023-05-29T03:50:46;8.85;;;5.72;;
65206;SDS011;58477;48.072;11.970;2023-05-29T03:53:12;9.52;;;5.60;;
65206;SDS011;58477;48.072;11.970;2023-05-29T03:55:38;8.85;;;5.50;;
65206;SDS011;58477;48.072;11.970;2023-05-29T03:58:06;9.38;;;5.97;;
65206;SDS011;58477;48.072;11.970;2023-05-29T04:00:32;9.90;;;5.88;;
65206;SDS011;58477;48.072;11.970;2023-05-29T04:03:01;15.50;;;6.28;;
65206;SDS011;58477;48.072;11.970;2023-05-29T04:05:27;10.68;;;5.50;;
65206;SDS011;58477;48.072;11.970;2023-05-29T04:07:52;11.80;;;5.50;;
65206;SDS011;58477;48.072;11.970;2023-05-29T04:10:18;7.93;;;5.25;;
65206;SDS011;58477;48.072;11.970;2023-05-29T04:12:43;8.70;;;5.55;;
65206;SDS011;58477;48.072;11.970;2023-05-29T04:15:08;8.07;;;5.07;;
65206;SDS011;58477;48.072;11.970;2023-05-29T04:17:34;12.07;;;5.63;;
65206;SDS011;58477;48.072;11.970;2023-05-29T04:19:59;9.45;;;5.70;;
65206;SDS011;58477;48.072;11.970;2023-05-29T04:22:31;11.53;;;6.00;;
65206;SDS011;58477;48.072;11.970;2023-05-29T04:24:56;10.90;;;5.75;;
65206;SDS011;58477;48.072;11.970;2023-05-29T04:27:22;8.02;;;5.72;;
65206;SDS011;58477;48.072;11.970;2023-05-29T04:29:47;12.43;;;5.38;;
65206;SDS011;58477;48.072;11.970;2023-05-29T04:32:13;8.23;;;5.32;;
65206;SDS011;58477;48.072;11.970;2023-05-29T04:34:38;11.65;;;5.47;;
65206;SDS011;58477;48.072;11.970;2023-05-29T04:37:04;11.07;;;5.55;;
65206;SDS011;58477;48.072;11.970;2023-05-29T04:39:31;12.52;;;5.45;;
65206;SDS011;58477;48.072;11.970;2023-05-29T04:41:57;10.85;;;5.75;;
65206;SDS011;58477;48.072;11.970;2023-05-29T04:44:26;8.43;;;5.50;;
65206;SDS011;58477;48.072;11.970;2023-05-29T04:46:53;8.82;;;5.57;;
65206;SDS011;58477;48.072;11.970;2023-05-29T04:49:19;14.55;;;5.75;;
65206;SDS011;58477;48.072;11.970;2023-05-29T04:51:45;10.48;;;5.22;;
65206;SDS011;58477;48.072;11.970;2023-05-29T04:54:11;6.88;;;5.35;;
65206;SDS011;58477;48.072;11.970;2023-05-29T04:56:39;7.90;;;4.97;;
65206;SDS011;58477;48.072;11.970;2023-05-29T04:59:10;8.18;;;4.88;;
65206;SDS011;58477;48.072;11.970;2023-05-29T05:01:35;7.80;;;4.93;;
65206;SDS011;58477;48.072;11.970;2023-05-29T05:04:01;12.38;;;5.20;;
65206;SDS011;58477;48.072;11.970;2023-05-29T05:06:26;8.55;;;5.10;;
65206;SDS011;58477;48.072;11.970;2023-05-29T05:08:52;12.05;;;5.45;;
65206;SDS011;58477;48.072;11.970;2023-05-29T05:11:19;7.13;;;4.60;;
65206;SDS011;58477;48.072;11.970;2023-05-29T05:13:46;7.80;;;4.85;;
65206;SDS011;58477;48.072;11.970;2023-05-29T05:16:11;8.13;;;5.13;;
65206;SDS011;58477;48.072;11.970;2023-05-29T05:18:38;10.10;;;4.97;;
65206;SDS011;58477;48.072;11.970;2023-05-29T05:21:06;7.28;;;4.95;;
65206;SDS011;58477;48.072;11.970;2023-05-29T05:23:33;8.57;;;5.15;;
65206;SDS011;58477;48.072;11.970;2023-05-29T05:25:58;13.57;;;5.00;;
65206;SDS011;58477;48.072;11.970;2023-05-29T05:28:25;13.50;;;5.88;;
65206;SDS011;58477;48.072;11.970;2023-05-29T05:30:51;8.88;;;5.15;;
65206;SDS011;58477;48.072;11.970;2023-05-29T05:33:22;8.20;;;5.05;;
65206;SDS011;58477;48.072;11.970;2023-05-29T05:35:48;8.10;;;4.63;;
65206;SDS011;58477;48.072;11.970;2023-05-29T05:38:14;11.43;;;5.32;;
65206;SDS011;58477;48.072;11.970;2023-05-29T05:40:39;9.38;;;4.85;;
65206;SDS011;58477;48.072;11.970;2023-05-29T05:43:13;9.05;;;5.40;;
65206;SDS011;58477;48.072;11.970;2023-05-29T05:46:10;10.95;;;5.65;;
65206;SDS011;58477;48.072;11.970;2023-05-29T05:48:36;10.82;;;5.28;;
65206;SDS011;58477;48.072;11.970;2023-05-29T05:51:02;11.70;;;5.53;;
65206;SDS011;58477;48.072;11.970;2023-05-29T05:53:27;9.85;;;5.40;;
65206;SDS011;58477;48.072;11.970;2023-05-29T05:55:53;8.98;;;5.25;;
65206;SDS011;58477;48.072;11.970;2023-05-29T05:58:19;10.35;;;6.18;;
65206;SDS011;58477;48.072;11.970;2023-05-29T06:00:45;9.38;;;5.53;;
65206;SDS011;58477;48.072;11.970;2023-05-29T06:03:11;13.38;;;4.45;;
65206;SDS011;58477;48.072;11.970;2023-05-29T06:05:50;8.73;;;5.30;;
65206;SDS011;58477;48.072;11.970;2023-05-29T06:08:17;9.93;;;5.07;;
65206;SDS011;58477;48.072;11.970;2023-05-29T06:10:42;10.38;;;5.38;;
65206;SDS011;58477;48.072;11.970;2023-05-29T06:13:08;9.13;;;4.85;;
65206;SDS011;58477;48.072;11.970;2023-05-29T06:15:43;7.78;;;5.30;;
65206;SDS011;58477;48.072;11.970;2023-05-29T06:18:08;8.38;;;5.28;;
65206;SDS011;58477;48.072;11.970;2023-05-29T06:20:34;12.05;;;5.30;;
65206;SDS011;58477;48.072;11.970;2023-05-29T06:23:01;10.18;;;5.32;;
65206;SDS011;58477;48.072;11.970;2023-05-29T06:25:27;12.00;;;5.40;;
65206;SDS011;58477;48.072;11.970;2023-05-29T06:27:58;10.27;;;5.50;;
65206;SDS011;58477;48.072;11.970;2023-05-29T06:30:27;11.93;;;5.25;;
65206;SDS011;58477;48.072;11.970;2023-05-29T06:32:53;7.60;;;4.65;;
65206;SDS011;58477;48.072;11.970;2023-05-29T06:35:25;7.53;;;5.22;;
65206;SDS011;58477;48.072;11.970;2023-05-29T06:37:50;11.52;;;4.90;;
65206;SDS011;58477;48.072;11.970;2023-05-29T06:40:16;9.60;;;4.90;;
65206;SDS011;58477;48.072;11.970;2023-05-29T06:42:41;9.27;;;5.03;;
65206;SDS011;58477;48.072;11.970;2023-05-29T06:45:13;7.72;;;5.22;;
65206;SDS011;58477;48.072;11.970;2023-05-29T06:47:39;8.00;;;5.30;;
65206;SDS011;58477;48.072;11.970;2023-05-29T06:50:06;6.75;;;4.70;;
65206;SDS011;58477;48.072;11.970;2023-05-29T06:52:32;9.73;;;5.25;;
65206;SDS011;58477;48.072;11.970;2023-05-29T06:55:20;7.38;;;4.53;;
65206;SDS011;58477;48.072;11.970;2023-05-29T06:57:46;8.10;;;5.47;;
65206;SDS011;58477;48.072;11.970;2023-05-29T07:00:12;8.80;;;5.10;;
65206;SDS011;58477;48.072;11.970;2023-05-29T07:02:44;7.75;;;5.13;;
65206;SDS011;58477;48.072;11.970;2023-05-29T07:05:10;11.10;;;5.60;;
65206;SDS011;58477;48.072;11.970;2023-05-29T07:07:36;8.75;;;4.60;;
65206;SDS011;58477;48.072;11.970;2023-05-29T07:10:02;10.13;;;5.18;;
65206;SDS011;58477;48.072;11.970;2023-05-29T07:12:28;8.77;;;4.97;;
65206;SDS011;58477;48.072;11.970;2023-05-29T07:14:53;10.15;;;5.60;;
65206;SDS011;58477;48.072;11.970;2023-05-29T07:17:19;12.27;;;5.15;;
65206;SDS011;58477;48.072;11.970;2023-05-29T07:19:48;9.63;;;5.35;;
65206;SDS011;58477;48.072;11.970;2023-05-29T07:22:15;10.32;;;5.43;;
65206;SDS011;58477;48.072;11.970;2023-05-29T07:24:41;6.63;;;5.30;;
65206;SDS011;58477;48.072;11.970;2023-05-29T07:27:06;9.05;;;4.88;;
65206;SDS011;58477;48.072;11.970;2023-05-29T07:29:33;10.77;;;5.00;;
65206;SDS011;58477;48.072;11.970;2023-05-29T07:31:59;12.20;;;5.47;;
65206;SDS011;58477;48.072;11.970;2023-05-29T07:34:25;7.15;;;4.80;;
65206;SDS011;58477;48.072;11.970;2023-05-29T07:36:57;8.63;;;5.00;;
65206;SDS011;58477;48.072;11.970;2023-05-29T07:39:25;9.57;;;4.93;;
65206;SDS011;58477;48.072;11.970;2023-05-29T07:41:51;6.70;;;4.90;;
65206;SDS011;58477;48.072;11.970;2023-05-29T07:44:17;9.07;;;5.43;;
65206;SDS011;58477;48.072;11.970;2023-05-29T07:46:43;7.25;;;5.03;;
65206;SDS011;58477;48.072;11.970;2023-05-29T07:49:32;11.70;;;4.93;;
65206;SDS011;58477;48.072;11.970;2023-05-29T07:51:58;8.18;;;4.60;;
65206;SDS011;58477;48.072;11.970;2023-05-29T07:54:23;11.68;;;4.97;;
65206;SDS011;58477;48.072;11.970;2023-05-29T07:56:49;7.35;;;5.05;;
65206;SDS011;58477;48.072;11.970;2023-05-29T07:59:16;11.73;;;4.97;;
65206;SDS011;58477;48.072;11.970;2023-05-29T08:01:42;9.18;;;4.78;;
65206;SDS011;58477;48.072;11.970;2023-05-29T08:04:20;13.30;;;4.85;;
65206;SDS011;58477;48.072;11.970;2023-05-29T08:06:46;11.45;;;5.20;;
65206;SDS011;58477;48.072;11.970;2023-05-29T08:09:12;6.65;;;4.10;;
65206;SDS011;58477;48.072;11.970;2023-05-29T08:11:38;9.32;;;5.40;;
65206;SDS011;58477;48.072;11.970;2023-05-29T08:14:03;7.88;;;4.80;;
65206;SDS011;58477;48.072;11.970;2023-05-29T08:16:30;8.98;;;4.82;;
65206;SDS011;58477;48.072;11.970;2023-05-29T08:18:55;7.47;;;4.13;;
65206;SDS011;58477;48.072;11.970;2023-05-29T08:21:21;10.70;;;4.95;;
65206;SDS011;58477;48.072;11.970;2023-05-29T08:23:46;7.75;;;4.10;;
65206;SDS011;58477;48.072;11.970;2023-05-29T08:26:12;6.50;;;4.10;;
65206;SDS011;58477;48.072;11.970;2023-05-29T08:28:38;9.88;;;4.28;;
65206;SDS011;58477;48.072;11.970;2023-05-29T08:31:03;8.27;;;4.45;;
65206;SDS011;58477;48.072;11.970;2023-05-29T08:33:29;8.77;;;4.50;;
65206;SDS011;58477;48.072;11.970;2023-05-29T08:35:56;11.73;;;5.22;;
65206;SDS011;58477;48.072;11.970;2023-05-29T08:38:23;11.57;;;4.47;;
65206;SDS011;58477;48.072;11.970;2023-05-29T08:40:50;8.85;;;4.80;;
65206;SDS011;58477;48.072;11.970;2023-05-29T08:43:17;9.88;;;4.70;;
65206;SDS011;58477;48.072;11.970;2023-05-29T08:45:47;9.70;;;4.53;;
65206;SDS011;58477;48.072;11.970;2023-05-29T08:48:17;7.20;;;4.45;;
65206;SDS011;58477;48.072;11.970;2023-05-29T08:50:44;9.95;;;4.80;;
65206;SDS011;58477;48.072;11.970;2023-05-29T08:53:14;7.82;;;4.43;;
65206;SDS011;58477;48.072;11.970;2023-05-29T08:55:40;5.57;;;4.10;;
65206;SDS011;58477;48.072;11.970;2023-05-29T08:58:06;9.35;;;4.93;;
65206;SDS011;58477;48.072;11.970;2023-05-29T09:00:32;10.02;;;4.68;;
65206;SDS011;58477;48.072;11.970;2023-05-29T09:02:58;5.38;;;3.97;;
65206;SDS011;58477;48.072;11.970;2023-05-29T09:05:28;6.05;;;3.83;;
65206;SDS011;58477;48.072;11.970;2023-05-29T09:07:54;11.50;;;4.60;;
65206;SDS011;58477;48.072;11.970;2023-05-29T09:10:20;7.97;;;4.57;;
65206;SDS011;58477;48.072;11.970;2023-05-29T09:12:47;9.75;;;4.15;;
65206;SDS011;58477;48.072;11.970;2023-05-29T09:15:21;10.00;;;4.35;;
65206;SDS011;58477;48.072;11.970;2023-05-29T09:17:51;9.27;;;4.10;;
65206;SDS011;58477;48.072;11.970;2023-05-29T09:20:18;6.78;;;4.20;;
65206;SDS011;58477;48.072;11.970;2023-05-29T09:25:23;7.43;;;4.15;;
65206;SDS011;58477;48.072;11.970;2023-05-29T09:27:55;11.77;;;4.60;;
65206;SDS011;58477;48.072;11.970;2023-05-29T09:33:08;6.07;;;3.92;;
65206;SDS011;58477;48.072;11.970;2023-05-29T09:35:36;5.97;;;4.13;;
65206;SDS011;58477;48.072;11.970;2023-05-29T09:38:06;7.20;;;4.17;;
65206;SDS011;58477;48.072;11.970;2023-05-29T09:40:34;6.88;;;3.85;;
65206;SDS011;58477;48.072;11.970;2023-05-29T09:43:04;4.30;;;3.80;;
65206;SDS011;58477;48.072;11.970;2023-05-29T09:45:44;6.45;;;3.83;;
65206;SDS011;58477;48.072;11.970;2023-05-29T09:48:15;9.82;;;4.35;;
65206;SDS011;58477;48.072;11.970;2023-05-29T09:50:41;4.82;;;3.75;;
65206;SDS011;58477;48.072;11.970;2023-05-29T09:53:19;7.38;;;4.32;;
65206;SDS011;58477;48.072;11.970;2023-05-29T09:55:47;6.82;;;4.47;;
65206;SDS011;58477;48.072;11.970;2023-05-29T09:58:14;9.15;;;4.10;;
65206;SDS011;58477;48.072;11.970;2023-05-29T10:00:44;6.28;;;3.58;;
65206;SDS011;58477;48.072;11.970;2023-05-29T10:03:10;5.30;;;3.50;;
65206;SDS011;58477;48.072;11.970;2023-05-29T10:05:39;6.60;;;3.30;;
65206;SDS011;58477;48.072;11.970;2023-05-29T10:08:08;5.80;;;3.25;;
65206;SDS011;58477;48.072;11.970;2023-05-29T10:10:36;7.22;;;3.95;;
65206;SDS011;58477;48.072;11.970;2023-05-29T10:13:03;4.32;;;3.38;;
65206;SDS011;58477;48.072;11.970;2023-05-29T10:15:31;5.25;;;3.58;;
65206;SDS011;58477;48.072;11.970;2023-05-29T10:18:11;5.93;;;4.10;;
65206;SDS011;58477;48.072;11.970;2023-05-29T10:20:41;11.52;;;4.13;;
65206;SDS011;58477;48.072;11.970;2023-05-29T10:23:09;5.60;;;3.63;;
65206;SDS011;58477;48.072;11.970;2023-05-29T10:25:36;6.50;;;4.00;;
65206;SDS011;58477;48.072;11.970;2023-05-29T10:28:04;5.90;;;3.63;;
65206;SDS011;58477;48.072;11.970;2023-05-29T10:30:39;7.05;;;4.07;;
65206;SDS011;58477;48.072;11.970;2023-05-29T10:33:22;6.67;;;3.70;;
65206;SDS011;58477;48.072;11.970;2023-05-29T10:36:42;5.45;;;3.90;;
65206;SDS011;58477;48.072;11.970;2023-05-29T10:39:02;6.70;;;3.47;;
65206;SDS011;58477;48.072;11.970;2023-05-29T10:41:28;7.43;;;3.67;;
65206;SDS011;58477;48.072;11.970;2023-05-29T10:43:54;8.35;;;4.05;;
65206;SDS011;58477;48.072;11.970;2023-05-29T10:46:20;8.00;;;3.65;;
65206;SDS011;58477;48.072;11.970;2023-05-29T10:48:47;6.20;;;3.30;;
65206;SDS011;58477;48.072;11.970;2023-05-29T10:51:24;6.00;;;3.60;;
65206;SDS011;58477;48.072;11.970;2023-05-29T10:53:51;6.57;;;3.42;;
65206;SDS011;58477;48.072;11.970;2023-05-29T10:56:21;7.15;;;3.60;;
65206;SDS011;58477;48.072;11.970;2023-05-29T10:58:55;8.32;;;3.42;;
65206;SDS011;58477;48.072;11.970;2023-05-29T11:01:23;4.40;;;3.25;;
65206;SDS011;58477;48.072;11.970;2023-05-29T11:03:53;5.38;;;3.28;;
65206;SDS011;58477;48.072;11.970;2023-05-29T11:06:38;5.10;;;2.95;;
65206;SDS011;58477;48.072;11.970;2023-05-29T11:09:04;4.28;;;3.45;;
65206;SDS011;58477;48.072;11.970;2023-05-29T11:11:33;3.78;;;3.38;;
65206;SDS011;58477;48.072;11.970;2023-05-29T11:14:02;6.50;;;3.53;;
65206;SDS011;58477;48.072;11.970;2023-05-29T11:18:55;4.78;;;3.28;;
65206;SDS011;58477;48.072;11.970;2023-05-29T11:21:33;5.20;;;3.22;;
65206;SDS011;58477;48.072;11.970;2023-05-29T11:24:28;4.82;;;3.10;;
65206;SDS011;58477;48.072;11.970;2023-05-29T11:26:57;6.70;;;3.55;;
65206;SDS011;58477;48.072;11.970;2023-05-29T11:29:31;4.80;;;3.20;;
65206;SDS011;58477;48.072;11.970;2023-05-29T11:32:06;6.40;;;3.50;;
65206;SDS011;58477;48.072;11.970;2023-05-29T11:34:37;6.57;;;3.67;;
65206;SDS011;58477;48.072;11.970;2023-05-29T11:37:05;7.65;;;3.55;;
65206;SDS011;58477;48.072;11.970;2023-05-29T11:39:31;7.97;;;3.28;;
65206;SDS011;58477;48.072;11.970;2023-05-29T11:42:01;7.97;;;3.55;;
65206;SDS011;58477;48.072;11.970;2023-05-29T11:44:27;5.70;;;3.13;;
65206;SDS011;58477;48.072;11.970;2023-05-29T11:47:01;5.07;;;3.40;;
65206;SDS011;58477;48.072;11.970;2023-05-29T11:49:28;5.15;;;3.60;;
65206;SDS011;58477;48.072;11.970;2023-05-29T11:52:04;4.88;;;3.35;;
65206;SDS011;58477;48.072;11.970;2023-05-29T11:54:37;5.57;;;3.60;;
65206;SDS011;58477;48.072;11.970;2023-05-29T11:57:02;5.57;;;3.05;;
65206;SDS011;58477;48.072;11.970;2023-05-29T11:59:34;5.35;;;3.13;;
65206;SDS011;58477;48.072;11.970;2023-05-29T12:02:02;5.40;;;3.20;;
65206;SDS011;58477;48.072;11.970;2023-05-29T12:04:28;5.18;;;3.00;;
65206;SDS011;58477;48.072;11.970;2023-05-29T12:06:53;3.92;;;2.55;;
65206;SDS011;58477;48.072;11.970;2023-05-29T12:09:28;5.55;;;2.80;;
65206;SDS011;58477;48.072;11.970;2023-05-29T12:12:03;4.30;;;3.17;;
65206;SDS011;58477;48.072;11.970;2023-05-29T12:14:29;4.97;;;3.22;;
65206;SDS011;58477;48.072;11.970;2023-05-29T12:16:55;4.43;;;3.30;;
65206;SDS011;58477;48.072;11.970;2023-05-29T12:19:21;3.67;;;2.55;;
65206;SDS011;58477;48.072;11.970;2023-05-29T12:21:46;3.95;;;2.70;;
65206;SDS011;58477;48.072;11.970;2023-05-29T12:24:12;3.85;;;3.03;;
65206;SDS011;58477;48.072;11.970;2023-05-29T12:26:38;6.53;;;3.47;;
65206;SDS011;58477;48.072;11.970;2023-05-29T12:29:04;5.57;;;3.10;;
65206;SDS011;58477;48.072;11.970;2023-05-29T12:31:31;4.75;;;2.88;;
65206;SDS011;58477;48.072;11.970;2023-05-29T12:34:12;7.72;;;2.85;;
65206;SDS011;58477;48.072;11.970;2023-05-29T12:36:40;7.00;;;3.53;;
65206;SDS011;58477;48.072;11.970;2023-05-29T12:39:06;4.78;;;3.28;;
65206;SDS011;58477;48.072;11.970;2023-05-29T12:41:36;6.15;;;3.67;;
65206;SDS011;58477;48.072;11.970;2023-05-29T12:44:02;4.32;;;3.00;;
65206;SDS011;58477;48.072;11.970;2023-05-29T12:46:37;6.65;;;3.55;;
65206;SDS011;58477;48.072;11.970;2023-05-29T12:49:13;10.13;;;3.40;;
65206;SDS011;58477;48.072;11.970;2023-05-29T12:51:40;4.63;;;3.30;;
65206;SDS011;58477;48.072;11.970;2023-05-29T12:54:07;4.03;;;3.33;;
65206;SDS011;58477;48.072;11.970;2023-05-29T12:56:32;5.35;;;3.35;;
65206;SDS011;58477;48.072;11.970;2023-05-29T12:58:57;5.15;;;3.53;;
65206;SDS011;58477;48.072;11.970;2023-05-29T13:01:23;7.00;;;3.47;;
65206;SDS011;58477;48.072;11.970;2023-05-29T13:03:49;8.43;;;3.50;;
65206;SDS011;58477;48.072;11.970;2023-05-29T13:06:14;4.63;;;3.40;;
65206;SDS011;58477;48.072;11.970;2023-05-29T13:08:40;6.13;;;3.38;;
65206;SDS011;58477;48.072;11.970;2023-05-29T13:11:06;6.32;;;3.47;;
65206;SDS011;58477;48.072;11.970;2023-05-29T13:13:31;5.60;;;3.10;;
65206;SDS011;58477;48.072;11.970;2023-05-29T13:15:57;4.45;;;3.38;;
65206;SDS011;58477;48.072;11.970;2023-05-29T13:18:22;7.25;;;3.60;;
65206;SDS011;58477;48.072;11.970;2023-05-29T13:20:48;7.13;;;3.20;;
65206;SDS011;58477;48.072;11.970;2023-05-29T13:23:13;6.50;;;3.55;;
65206;SDS011;58477;48.072;11.970;2023-05-29T13:25:39;5.90;;;3.13;;
65206;SDS011;58477;48.072;11.970;2023-05-29T13:28:05;5.68;;;3.00;;
65206;SDS011;58477;48.072;11.970;2023-05-29T13:30:30;4.63;;;3.22;;
65206;SDS011;58477;48.072;11.970;2023-05-29T13:32:56;6.50;;;3.20;;
65206;SDS011;58477;48.072;11.970;2023-05-29T13:35:21;5.95;;;3.47;;
65206;SDS011;58477;48.072;11.970;2023-05-29T13:37:47;5.57;;;3.40;;
65206;SDS011;58477;48.072;11.970;2023-05-29T13:40:13;6.22;;;3.35;;
65206;SDS011;58477;48.072;11.970;2023-05-29T13:42:39;5.10;;;3.40;;
65206;SDS011;58477;48.072;11.970;2023-05-29T13:45:05;7.38;;;3.17;;
65206;SDS011;58477;48.072;11.970;2023-05-29T13:47:34;5.53;;;3.40;;
65206;SDS011;58477;48.072;11.970;2023-05-29T13:50:00;5.07;;;2.97;;
65206;SDS011;58477;48.072;11.970;2023-05-29T13:52:27;5.80;;;3.80;;
65206;SDS011;58477;48.072;11.970;2023-05-29T13:54:53;9.07;;;3.55;;
65206;SDS011;58477;48.072;11.970;2023-05-29T13:57:18;4.13;;;3.35;;
65206;SDS011;58477;48.072;11.970;2023-05-29T13:59:44;4.60;;;3.10;;
65206;SDS011;58477;48.072;11.970;2023-05-29T14:02:10;4.47;;;3.22;;
65206;SDS011;58477;48.072;11.970;2023-05-29T14:04:37;5.05;;;2.97;;
65206;SDS011;58477;48.072;11.970;2023-05-29T14:07:03;5.60;;;3.33;;
65206;SDS011;58477;48.072;11.970;2023-05-29T14:09:29;4.80;;;3.15;;
65206;SDS011;58477;48.072;11.970;2023-05-29T14:11:55;5.40;;;3.33;;
65206;SDS011;58477;48.072;11.970;2023-05-29T14:14:22;4.38;;;3.20;;
65206;SDS011;58477;48.072;11.970;2023-05-29T14:16:48;5.43;;;3.40;;
65206;SDS011;58477;48.072;11.970;2023-05-29T14:19:14;3.78;;;3.05;;
65206;SDS011;58477;48.072;11.970;2023-05-29T14:21:40;5.07;;;3.00;;
65206;SDS011;58477;48.072;11.970;2023-05-29T14:24:05;5.30;;;3.00;;
65206;SDS011;58477;48.072;11.970;2023-05-29T14:26:32;6.35;;;3.40;;
65206;SDS011;58477;48.072;11.970;2023-05-29T14:28:58;4.93;;;3.35;;
65206;SDS011;58477;48.072;11.970;2023-05-29T14:31:23;5.18;;;3.35;;
65206;SDS011;58477;48.072;11.970;2023-05-29T14:33:48;5.10;;;3.35;;
65206;SDS011;58477;48.072;11.970;2023-05-29T14:36:14;7.40;;;4.00;;
65206;SDS011;58477;48.072;11.970;2023-05-29T14:38:40;7.50;;;3.17;;
65206;SDS011;58477;48.072;11.970;2023-05-29T14:41:06;3.78;;;2.83;;
65206;SDS011;58477;48.072;11.970;2023-05-29T14:43:31;5.53;;;3.00;;
65206;SDS011;58477;48.072;11.970;2023-05-29T14:45:57;3.85;;;2.80;;
65206;SDS011;58477;48.072;11.970;2023-05-29T14:48:23;4.03;;;3.10;;
65206;SDS011;58477;48.072;11.970;2023-05-29T14:50:49;3.95;;;3.10;;
65206;SDS011;58477;48.072;11.970;2023-05-29T14:53:14;4.75;;;3.20;;